sensor_id;sensor_type;location;lat;lon;timestamp;pressure;altitude;pressure_sealevel;temperature;humidity
62152;BME280;48139;47.474;19.034;2023-02-23T04:59:32;100511.31;;;7.79;85.77
62152;BME280;48139;47.474;19.034;2023-02-23T05:02:35;100511.31;;;7.79;85.77
62152;BME280;48139;47.474;19.034;2023-02-23T05:05:38;100517.12;;;7.33;86.36
62152;BME280;48139;47.474;19.034;2023-02-23T05:08:41;100514.50;;;7.34;86.23
62152;BME280;48139;47.474;19.034;2023-02-23T05:11:43;100516.16;;;7.37;85.66
62152;BME280;48139;47.474;19.034;2023-02-23T05:14:46;100515.69;;;7.50;84.49
62152;BME280;48139;47.474;19.034;2023-02-23T05:17:49;100518.94;;;7.58;84.64
62152;BME280;48139;47.474;19.034;2023-02-23T05:20:52;100523.00;;;7.67;83.37
62152;BME280;48139;47.474;19.034;2023-02-23T05:23:55;100519.53;;;7.66;82.99
62152;BME280;48139;47.474;19.034;2023-02-23T05:26:58;100522.44;;;7.57;84.22
62152;BME280;48139;47.474;19.034;2023-02-23T05:30:02;100523.97;;;7.63;83.50
62152;BME280;48139;47.474;19.034;2023-02-23T05:33:05;100530.69;;;7.44;84.57
62152;BME280;48139;47.474;19.034;2023-02-23T05:36:12;100520.91;;;7.50;84.26
62152;BME280;48139;47.474;19.034;2023-02-23T05:39:17;100529.28;;;7.61;83.42
62152;BME280;48139;47.474;19.034;2023-02-23T05:42:20;100528.63;;;7.55;83.96
62152;BME280;48139;47.474;19.034;2023-02-23T05:45:23;100528.66;;;7.53;84.10
62152;BME280;48139;47.474;19.034;2023-02-23T05:48:27;100527.41;;;7.65;82.57
62152;BME280;48139;47.474;19.034;2023-02-23T05:51:32;100525.69;;;7.64;83.36
62152;BME280;48139;47.474;19.034;2023-02-23T05:54:35;100535.28;;;7.63;82.31
62152;BME280;48139;47.474;19.034;2023-02-23T05:57:38;100535.97;;;7.68;82.39
62152;BME280;48139;47.474;19.034;2023-02-23T06:00:43;100535.44;;;7.85;80.27
62152;BME280;48139;47.474;19.034;2023-02-23T06:03:47;100539.63;;;7.89;80.30
62152;BME280;48139;47.474;19.034;2023-02-23T06:06:49;100540.81;;;7.81;81.00
62152;BME280;48139;47.474;19.034;2023-02-23T06:09:52;100546.75;;;7.84;79.78
62152;BME280;48139;47.474;19.034;2023-02-23T06:12:55;100547.66;;;7.83;80.67
62152;BME280;48139;47.474;19.034;2023-02-23T06:15:58;100555.44;;;7.85;79.70
62152;BME280;48139;47.474;19.034;2023-02-23T06:19:00;100558.25;;;7.79;80.67
62152;BME280;48139;47.474;19.034;2023-02-23T06:22:03;100570.28;;;7.83;79.58
62152;BME280;48139;47.474;19.034;2023-02-23T06:25:06;100561.06;;;7.73;79.94
62152;BME280;48139;47.474;19.034;2023-02-23T06:28:14;100568.03;;;7.72;80.46
62152;BME280;48139;47.474;19.034;2023-02-23T06:31:16;100568.41;;;7.60;81.79
62152;BME280;48139;47.474;19.034;2023-02-23T06:34:19;100573.84;;;7.80;80.89
62152;BME280;48139;47.474;19.034;2023-02-23T06:37:22;100575.44;;;7.84;79.27
62152;BME280;48139;47.474;19.034;2023-02-23T06:40:25;100580.91;;;7.77;78.86
62152;BME280;48139;47.474;19.034;2023-02-23T06:43:28;100581.06;;;7.72;80.25
62152;BME280;48139;47.474;19.034;2023-02-23T06:46:30;100585.06;;;7.82;78.90
62152;BME280;48139;47.474;19.034;2023-02-23T06:49:35;100588.50;;;7.84;78.62
62152;BME280;48139;47.474;19.034;2023-02-23T06:52:38;100600.16;;;7.73;78.18
62152;BME280;48139;47.474;19.034;2023-02-23T06:55:40;100594.72;;;7.80;78.59
62152;BME280;48139;47.474;19.034;2023-02-23T06:58:43;100592.84;;;7.84;77.12
62152;BME280;48139;47.474;19.034;2023-02-23T07:01:46;100592.97;;;7.81;77.19
62152;BME280;48139;47.474;19.034;2023-02-23T07:04:49;100594.88;;;8.02;75.37
62152;BME280;48139;47.474;19.034;2023-02-23T07:07:51;100604.84;;;8.16;74.48
62152;BME280;48139;47.474;19.034;2023-02-23T07:10:54;100604.88;;;8.14;73.68
62152;BME280;48139;47.474;19.034;2023-02-23T07:13:59;100601.59;;;8.09;74.95
62152;BME280;48139;47.474;19.034;2023-02-23T07:17:03;100612.50;;;8.20;73.74
62152;BME280;48139;47.474;19.034;2023-02-23T07:20:06;100600.78;;;8.33;72.82
62152;BME280;48139;47.474;19.034;2023-02-23T07:23:09;100607.56;;;8.39;70.64
62152;BME280;48139;47.474;19.034;2023-02-23T07:26:12;100603.37;;;8.35;70.04
62152;BME280;48139;47.474;19.034;2023-02-23T07:29:17;100609.81;;;8.23;70.84
62152;BME280;48139;47.474;19.034;2023-02-23T07:32:20;100604.53;;;8.25;70.37
62152;BME280;48139;47.474;19.034;2023-02-23T07:35:23;100610.06;;;8.16;70.99
62152;BME280;48139;47.474;19.034;2023-02-23T07:38:26;100617.66;;;8.23;70.56
62152;BME280;48139;47.474;19.034;2023-02-23T07:41:30;100614.91;;;8.26;70.88
62152;BME280;48139;47.474;19.034;2023-02-23T07:44:33;100609.47;;;8.34;69.85
62152;BME280;48139;47.474;19.034;2023-02-23T07:47:36;100610.00;;;8.43;68.42
62152;BME280;48139;47.474;19.034;2023-02-23T07:50:39;100609.22;;;8.41;67.74
62152;BME280;48139;47.474;19.034;2023-02-23T07:53:43;100610.72;;;8.22;68.64
62152;BME280;48139;47.474;19.034;2023-02-23T07:56:46;100610.56;;;8.27;68.51
62152;BME280;48139;47.474;19.034;2023-02-23T07:59:48;100608.91;;;8.50;68.01
62152;BME280;48139;47.474;19.034;2023-02-23T08:02:51;100604.00;;;8.66;66.87
62152;BME280;48139;47.474;19.034;2023-02-23T08:05:57;100610.00;;;8.68;66.90
62152;BME280;48139;47.474;19.034;2023-02-23T08:09:01;100607.81;;;8.81;65.37
62152;BME280;48139;47.474;19.034;2023-02-23T08:12:04;100603.72;;;8.99;64.88
62152;BME280;48139;47.474;19.034;2023-02-23T08:15:08;100605.97;;;9.08;63.87
62152;BME280;48139;47.474;19.034;2023-02-23T08:18:10;100605.69;;;9.15;63.59
62152;BME280;48139;47.474;19.034;2023-02-23T08:21:13;100612.91;;;9.09;63.71
62152;BME280;48139;47.474;19.034;2023-02-23T08:24:16;100606.41;;;9.19;62.91
62152;BME280;48139;47.474;19.034;2023-02-23T08:27:19;100613.63;;;9.12;62.71
62152;BME280;48139;47.474;19.034;2023-02-23T08:30:24;100620.28;;;9.21;62.91
62152;BME280;48139;47.474;19.034;2023-02-23T08:33:27;100614.13;;;9.45;61.60
62152;BME280;48139;47.474;19.034;2023-02-23T08:36:30;100619.03;;;9.31;60.20
62152;BME280;48139;47.474;19.034;2023-02-23T08:39:33;100618.62;;;9.42;59.41
62152;BME280;48139;47.474;19.034;2023-02-23T08:42:36;100619.94;;;9.53;59.79
62152;BME280;48139;47.474;19.034;2023-02-23T08:45:38;100616.09;;;9.62;59.43
62152;BME280;48139;47.474;19.034;2023-02-23T08:48:41;100619.87;;;9.77;59.39
62152;BME280;48139;47.474;19.034;2023-02-23T08:51:45;100618.19;;;9.97;57.81
62152;BME280;48139;47.474;19.034;2023-02-23T08:54:48;100630.66;;;9.91;57.12
62152;BME280;48139;47.474;19.034;2023-02-23T08:57:50;100624.66;;;9.87;57.76
62152;BME280;48139;47.474;19.034;2023-02-23T09:00:53;100624.63;;;9.89;57.42
62152;BME280;48139;47.474;19.034;2023-02-23T09:03:56;100627.09;;;9.70;56.52
62152;BME280;48139;47.474;19.034;2023-02-23T09:06:58;100632.03;;;9.78;56.43
62152;BME280;48139;47.474;19.034;2023-02-23T09:10:01;100626.72;;;9.57;57.15
62152;BME280;48139;47.474;19.034;2023-02-23T09:13:03;100631.47;;;9.69;57.17
62152;BME280;48139;47.474;19.034;2023-02-23T09:16:06;100632.59;;;9.64;57.46
62152;BME280;48139;47.474;19.034;2023-02-23T09:19:09;100627.06;;;9.71;57.09
62152;BME280;48139;47.474;19.034;2023-02-23T09:22:12;100625.88;;;9.57;56.79
62152;BME280;48139;47.474;19.034;2023-02-23T09:25:16;100633.63;;;9.13;58.04
62152;BME280;48139;47.474;19.034;2023-02-23T09:28:24;100626.59;;;9.39;57.85
62152;BME280;48139;47.474;19.034;2023-02-23T09:31:28;100634.72;;;9.54;56.79
62152;BME280;48139;47.474;19.034;2023-02-23T09:34:31;100632.81;;;9.58;56.91
62152;BME280;48139;47.474;19.034;2023-02-23T09:37:38;100633.81;;;9.77;57.32
62152;BME280;48139;47.474;19.034;2023-02-23T09:40:49;100640.22;;;9.92;56.12
62152;BME280;48139;47.474;19.034;2023-02-23T09:47:21;100632.84;;;9.80;55.55
62152;BME280;48139;47.474;19.034;2023-02-23T09:50:30;100635.00;;;10.12;55.10
62152;BME280;48139;47.474;19.034;2023-02-23T09:53:39;100642.56;;;10.41;55.47
62152;BME280;48139;47.474;19.034;2023-02-23T09:56:48;100636.19;;;10.27;54.49
62152;BME280;48139;47.474;19.034;2023-02-23T09:59:52;100635.94;;;10.33;54.12
62152;BME280;48139;47.474;19.034;2023-02-23T10:06:12;100633.97;;;10.58;54.23
62152;BME280;48139;47.474;19.034;2023-02-23T10:16:21;100642.25;;;10.49;54.33
62152;BME280;48139;47.474;19.034;2023-02-23T10:19:27;100637.06;;;10.68;54.09
62152;BME280;48139;47.474;19.034;2023-02-23T10:22:34;100637.72;;;10.52;53.61
62152;BME280;48139;47.474;19.034;2023-02-23T10:25:41;100637.59;;;10.56;53.92
62152;BME280;48139;47.474;19.034;2023-02-23T10:28:44;100633.34;;;10.53;54.44
62152;BME280;48139;47.474;19.034;2023-02-23T10:31:53;100630.66;;;10.55;53.97
62152;BME280;48139;47.474;19.034;2023-02-23T10:34:58;100632.44;;;10.74;53.48
62152;BME280;48139;47.474;19.034;2023-02-23T10:38:01;100629.59;;;10.59;53.77
62152;BME280;48139;47.474;19.034;2023-02-23T10:41:04;100617.03;;;10.67;53.92
62152;BME280;48139;47.474;19.034;2023-02-23T10:44:10;100618.84;;;10.85;53.88
62152;BME280;48139;47.474;19.034;2023-02-23T10:47:21;100619.22;;;10.76;53.16
62152;BME280;48139;47.474;19.034;2023-02-23T10:50:27;100618.84;;;10.65;53.90
62152;BME280;48139;47.474;19.034;2023-02-23T10:53:32;100612.28;;;10.75;54.10
62152;BME280;48139;47.474;19.034;2023-02-23T10:56:43;100605.72;;;11.05;53.35
62152;BME280;48139;47.474;19.034;2023-02-23T11:00:23;100600.72;;;10.80;53.51
62152;BME280;48139;47.474;19.034;2023-02-23T11:03:39;100596.03;;;10.87;53.03
62152;BME280;48139;47.474;19.034;2023-02-23T11:06:44;100595.94;;;11.09;52.68
62152;BME280;48139;47.474;19.034;2023-02-23T11:09:48;100596.91;;;11.25;52.34
62152;BME280;48139;47.474;19.034;2023-02-23T11:12:52;100590.66;;;10.90;52.96
62152;BME280;48139;47.474;19.034;2023-02-23T11:16:05;100583.72;;;10.69;52.79
62152;BME280;48139;47.474;19.034;2023-02-23T11:19:36;100583.09;;;10.64;53.14
62152;BME280;48139;47.474;19.034;2023-02-23T11:22:40;100577.94;;;10.81;52.62
62152;BME280;48139;47.474;19.034;2023-02-23T11:25:44;100573.41;;;10.66;53.28
62152;BME280;48139;47.474;19.034;2023-02-23T11:28:52;100583.88;;;10.86;53.03
62152;BME280;48139;47.474;19.034;2023-02-23T11:31:57;100576.59;;;10.93;51.88
62152;BME280;48139;47.474;19.034;2023-02-23T11:38:25;100573.19;;;10.70;53.54
62152;BME280;48139;47.474;19.034;2023-02-23T11:41:29;100573.13;;;10.72;52.90
62152;BME280;48139;47.474;19.034;2023-02-23T11:44:34;100569.13;;;10.63;53.02
62152;BME280;48139;47.474;19.034;2023-02-23T11:47:43;100564.62;;;10.67;53.07
62152;BME280;48139;47.474;19.034;2023-02-23T11:50:48;100568.19;;;10.84;52.93
62152;BME280;48139;47.474;19.034;2023-02-23T11:53:51;100557.47;;;11.09;53.14
62152;BME280;48139;47.474;19.034;2023-02-23T11:56:54;100561.97;;;11.06;52.28
62152;BME280;48139;47.474;19.034;2023-02-23T12:00:03;100558.09;;;11.14;52.36
62152;BME280;48139;47.474;19.034;2023-02-23T12:03:20;100556.88;;;11.21;51.47
62152;BME280;48139;47.474;19.034;2023-02-23T12:09:34;100557.59;;;11.25;52.50
62152;BME280;48139;47.474;19.034;2023-02-23T12:12:45;100552.03;;;11.31;52.07
62152;BME280;48139;47.474;19.034;2023-02-23T12:16:04;100546.69;;;11.34;51.83
62152;BME280;48139;47.474;19.034;2023-02-23T12:19:24;100547.62;;;11.50;51.70
62152;BME280;48139;47.474;19.034;2023-02-23T12:22:33;100542.28;;;11.35;51.03
62152;BME280;48139;47.474;19.034;2023-02-23T12:25:54;100540.34;;;11.38;51.76
62152;BME280;48139;47.474;19.034;2023-02-23T12:29:04;100536.53;;;11.26;52.27
62152;BME280;48139;47.474;19.034;2023-02-23T12:32:17;100534.16;;;11.03;52.55
62152;BME280;48139;47.474;19.034;2023-02-23T12:35:27;100528.69;;;11.08;53.27
62152;BME280;48139;47.474;19.034;2023-02-23T12:42:25;100517.97;;;10.93;53.40
62152;BME280;48139;47.474;19.034;2023-02-23T12:45:51;100514.87;;;11.04;53.07
62152;BME280;48139;47.474;19.034;2023-02-23T12:52:27;100515.25;;;11.32;52.95
62152;BME280;48139;47.474;19.034;2023-02-23T12:55:43;100510.50;;;11.05;52.93
62152;BME280;48139;47.474;19.034;2023-02-23T12:59:35;100506.28;;;11.19;53.54
62152;BME280;48139;47.474;19.034;2023-02-23T13:02:49;100497.44;;;11.22;52.83
62152;BME280;48139;47.474;19.034;2023-02-23T13:12:13;100490.16;;;11.46;52.60
62152;BME280;48139;47.474;19.034;2023-02-23T13:18:33;100486.38;;;11.51;51.87
62152;BME280;48139;47.474;19.034;2023-02-23T13:21:42;100480.81;;;11.57;51.97
62152;BME280;48139;47.474;19.034;2023-02-23T13:24:47;100480.66;;;11.43;52.29
62152;BME280;48139;47.474;19.034;2023-02-23T13:27:55;100480.78;;;11.23;52.98
62152;BME280;48139;47.474;19.034;2023-02-23T13:31:01;100476.97;;;11.11;53.51
62152;BME280;48139;47.474;19.034;2023-02-23T13:34:28;100472.41;;;11.51;52.94
62152;BME280;48139;47.474;19.034;2023-02-23T13:40:49;100475.00;;;11.33;53.08
62152;BME280;48139;47.474;19.034;2023-02-23T13:44:51;100463.44;;;11.38;52.59
62152;BME280;48139;47.474;19.034;2023-02-23T13:47:46;100452.75;;;11.59;52.72
62152;BME280;48139;47.474;19.034;2023-02-23T13:51:02;100455.13;;;11.64;52.28
62152;BME280;48139;47.474;19.034;2023-02-23T13:54:33;100446.72;;;11.57;52.96
62152;BME280;48139;47.474;19.034;2023-02-23T13:57:42;100453.38;;;11.64;53.29
62152;BME280;48139;47.474;19.034;2023-02-23T14:00:52;100454.09;;;11.85;52.92
62152;BME280;48139;47.474;19.034;2023-02-23T14:04:04;100444.75;;;11.97;51.85
62152;BME280;48139;47.474;19.034;2023-02-23T14:07:37;100450.06;;;11.95;52.02
62152;BME280;48139;47.474;19.034;2023-02-23T14:10:43;100446.34;;;11.99;52.50
62152;BME280;48139;47.474;19.034;2023-02-23T14:14:01;100443.28;;;11.91;52.61
62152;BME280;48139;47.474;19.034;2023-02-23T14:17:37;100447.56;;;11.58;53.33
62152;BME280;48139;47.474;19.034;2023-02-23T14:24:26;100454.16;;;11.49;54.68
62152;BME280;48139;47.474;19.034;2023-02-23T14:27:42;100447.88;;;11.52;54.28
62152;BME280;48139;47.474;19.034;2023-02-23T14:30:47;100446.19;;;11.51;54.39
62152;BME280;48139;47.474;19.034;2023-02-23T14:33:58;100447.88;;;11.52;54.36
62152;BME280;48139;47.474;19.034;2023-02-23T14:37:13;100452.22;;;11.53;54.82
62152;BME280;48139;47.474;19.034;2023-02-23T14:40:23;100448.06;;;11.66;54.53
62152;BME280;48139;47.474;19.034;2023-02-23T14:46:48;100445.91;;;11.91;55.25
62152;BME280;48139;47.474;19.034;2023-02-23T14:49:56;100446.28;;;12.01;54.22
62152;BME280;48139;47.474;19.034;2023-02-23T14:53:00;100437.75;;;11.80;54.14
62152;BME280;48139;47.474;19.034;2023-02-23T14:56:17;100440.72;;;11.72;54.70
62152;BME280;48139;47.474;19.034;2023-02-23T14:59:21;100437.69;;;11.63;54.98
62152;BME280;48139;47.474;19.034;2023-02-23T15:02:28;100437.09;;;11.58;55.38
62152;BME280;48139;47.474;19.034;2023-02-23T15:05:42;100432.53;;;11.61;55.75
62152;BME280;48139;47.474;19.034;2023-02-23T15:08:45;100433.78;;;11.54;55.96
62152;BME280;48139;47.474;19.034;2023-02-23T15:11:49;100433.47;;;11.24;56.72
62152;BME280;48139;47.474;19.034;2023-02-23T15:14:57;100429.81;;;11.28;57.41
62152;BME280;48139;47.474;19.034;2023-02-23T15:18:01;100427.63;;;11.19;57.83
62152;BME280;48139;47.474;19.034;2023-02-23T15:21:09;100430.25;;;11.19;57.97
62152;BME280;48139;47.474;19.034;2023-02-23T15:24:13;100436.34;;;11.20;58.56
62152;BME280;48139;47.474;19.034;2023-02-23T15:27:28;100431.94;;;11.20;58.97
62152;BME280;48139;47.474;19.034;2023-02-23T15:30:31;100426.87;;;11.17;58.85
62152;BME280;48139;47.474;19.034;2023-02-23T15:33:34;100424.44;;;11.13;58.73
62152;BME280;48139;47.474;19.034;2023-02-23T15:36:37;100421.13;;;11.09;58.69
62152;BME280;48139;47.474;19.034;2023-02-23T15:39:49;100417.53;;;11.12;59.25
62152;BME280;48139;47.474;19.034;2023-02-23T15:42:57;100419.50;;;11.07;59.46
62152;BME280;48139;47.474;19.034;2023-02-23T15:46:04;100412.66;;;11.04;59.10
62152;BME280;48139;47.474;19.034;2023-02-23T15:49:10;100423.87;;;11.06;59.73
62152;BME280;48139;47.474;19.034;2023-02-23T15:52:19;100427.34;;;11.07;60.37
62152;BME280;48139;47.474;19.034;2023-02-23T15:55:26;100420.97;;;11.12;60.51
62152;BME280;48139;47.474;19.034;2023-02-23T15:58:35;100421.50;;;11.02;60.23
62152;BME280;48139;47.474;19.034;2023-02-23T16:01:46;100420.66;;;11.01;60.64
62152;BME280;48139;47.474;19.034;2023-02-23T16:04:50;100419.87;;;10.99;60.90
62152;BME280;48139;47.474;19.034;2023-02-23T16:08:06;100422.22;;;11.05;61.07
62152;BME280;48139;47.474;19.034;2023-02-23T16:11:18;100424.06;;;11.03;60.39
62152;BME280;48139;47.474;19.034;2023-02-23T16:14:22;100423.72;;;10.92;61.53
62152;BME280;48139;47.474;19.034;2023-02-23T16:20:49;100416.41;;;10.99;61.27
62152;BME280;48139;47.474;19.034;2023-02-23T16:23:58;100425.19;;;10.98;61.02
62152;BME280;48139;47.474;19.034;2023-02-23T16:27:09;100423.56;;;10.95;61.29
62152;BME280;48139;47.474;19.034;2023-02-23T16:33:25;100415.00;;;10.91;61.85
62152;BME280;48139;47.474;19.034;2023-02-23T16:36:36;100424.63;;;10.91;61.85
62152;BME280;48139;47.474;19.034;2023-02-23T16:39:42;100426.53;;;10.87;61.94
62152;BME280;48139;47.474;19.034;2023-02-23T16:42:45;100423.16;;;10.85;64.06
